AAL244 KLGA-KRDU
Flight info
| Callsign | AAL244 |
|---|---|
| Flight time | 1h 19m |
| Altitude | 36000 |
| Route | WHITE Q409 VILLS NALES Q141 HOUKY TAQLE3 |
| Aircraft | A319/M-SDE3FGHIRWY/LB1 |
Departure
| Time | 2026-05-07 01:59 |
|---|---|
| Airport | LaGuardia Airport (KLGA) |
Arrival
| Time | 2026-05-07 03:18 |
|---|---|
| Airport | Raleigh-Durham International Airport (KRDU) |
| Time | Latitude | Longitude | Altitude | Speed | Heading |
|---|---|---|---|---|---|
| 2026-05-07 01:44 | 40.77544 | -73.87131 | 20 ft | 0 kts | 302° |
| 2026-05-07 01:51 | 40.77540 | -73.87124 | 19 ft | 2 kts | 302° |
| 2026-05-07 01:52 | 40.77531 | -73.87105 | 23 ft | 2 kts | 303° |
| 2026-05-07 01:52 | 40.77521 | -73.87088 | 21 ft | 2 kts | 331° |
| 2026-05-07 01:52 | 40.77505 | -73.87083 | 22 ft | 2 kts | 15° |
| 2026-05-07 01:52 | 40.77495 | -73.87087 | 20 ft | 1 kts | 33° |
| 2026-05-07 01:54 | 40.77499 | -73.87084 | 20 ft | 4 kts | 33° |
| 2026-05-07 01:54 | 40.77552 | -73.87038 | 19 ft | 14 kts | 33° |
| 2026-05-07 01:54 | 40.77614 | -73.86986 | 17 ft | 22 kts | 32° |
| 2026-05-07 01:55 | 40.77641 | -73.86973 | 13 ft | 1 kts | 353° |
| 2026-05-07 01:55 | 40.77707 | -73.87000 | 13 ft | 14 kts | 316° |
| 2026-05-07 01:55 | 40.77764 | -73.87116 | 15 ft | 18 kts | 303° |
| 2026-05-07 01:56 | 40.77849 | -73.87293 | 14 ft | 26 kts | 302° |
| 2026-05-07 01:56 | 40.77920 | -73.87441 | 15 ft | 4 kts | 302° |
| 2026-05-07 01:56 | 40.77920 | -73.87442 | 15 ft | 0 kts | 302° |
| 2026-05-07 01:56 | 40.77928 | -73.87459 | 15 ft | 6 kts | 302° |
| 2026-05-07 01:57 | 40.77972 | -73.87553 | 16 ft | 21 kts | 302° |
| 2026-05-07 01:57 | 40.78065 | -73.87747 | 17 ft | 26 kts | 302° |
| 2026-05-07 01:57 | 40.78150 | -73.87872 | 25 ft | 16 kts | 344° |
| 2026-05-07 01:57 | 40.78211 | -73.87816 | 22 ft | 9 kts | 99° |
| 2026-05-07 01:58 | 40.78201 | -73.87793 | 23 ft | 10 kts | 122° |
| 2026-05-07 01:58 | 40.78043 | -73.87461 | 14 ft | 75 kts | 122° |
| 2026-05-07 01:58 | 40.77654 | -73.86651 | 14 ft | 132 kts | 122° |
| 2026-05-07 01:58 | 40.77107 | -73.85501 | 340 ft | 151 kts | 126° |
| 2026-05-07 01:59 | 40.76432 | -73.84468 | 893 ft | 149 kts | 149° |
| 2026-05-07 01:59 | 40.75513 | -73.83925 | 1460 ft | 142 kts | 178° |
| 2026-05-07 01:59 | 40.74535 | -73.83625 | 1941 ft | 151 kts | 178° |
| 2026-05-07 01:59 | 40.73434 | -73.83292 | 2266 ft | 173 kts | 176° |
| 2026-05-07 02:00 | 40.72180 | -73.83041 | 2535 ft | 191 kts | 191° |
| 2026-05-07 02:00 | 40.70840 | -73.83507 | 2833 ft | 211 kts | 206° |
| 2026-05-07 02:00 | 40.69390 | -73.84227 | 3303 ft | 235 kts | 207° |
| 2026-05-07 02:00 | 40.67811 | -73.85042 | 3991 ft | 249 kts | 207° |
| 2026-05-07 02:01 | 40.66194 | -73.85896 | 5032 ft | 251 kts | 208° |
| 2026-05-07 02:01 | 40.64585 | -73.86734 | 6047 ft | 253 kts | 208° |
| 2026-05-07 02:01 | 40.62935 | -73.87568 | 6997 ft | 255 kts | 207° |
| 2026-05-07 02:01 | 40.61253 | -73.88415 | 7941 ft | 257 kts | 207° |
| 2026-05-07 02:02 | 40.59592 | -73.89236 | 8849 ft | 259 kts | 207° |
| 2026-05-07 02:02 | 40.57889 | -73.90056 | 9668 ft | 263 kts | 207° |
| 2026-05-07 02:02 | 40.56165 | -73.90863 | 9930 ft | 262 kts | 207° |
| 2026-05-07 02:02 | 40.54450 | -73.91658 | 10013 ft | 261 kts | 207° |
| 2026-05-07 02:03 | 40.52736 | -73.92457 | 10035 ft | 262 kts | 207° |
| 2026-05-07 02:03 | 40.50951 | -73.93306 | 10210 ft | 284 kts | 207° |
| 2026-05-07 02:03 | 40.49052 | -73.94232 | 10699 ft | 296 kts | 207° |
| 2026-05-07 02:03 | 40.47111 | -73.95188 | 11416 ft | 300 kts | 207° |
| 2026-05-07 02:04 | 40.45042 | -73.95831 | 12133 ft | 317 kts | 189° |
| 2026-05-07 02:04 | 40.42797 | -73.95363 | 12844 ft | 338 kts | 170° |
| 2026-05-07 02:04 | 40.40570 | -73.94312 | 13615 ft | 342 kts | 168° |
| 2026-05-07 02:04 | 40.38326 | -73.93209 | 14278 ft | 346 kts | 167° |
| 2026-05-07 02:05 | 40.36058 | -73.92086 | 14901 ft | 351 kts | 167° |
| 2026-05-07 02:05 | 40.33757 | -73.90945 | 15522 ft | 355 kts | 167° |
| 2026-05-07 02:05 | 40.31430 | -73.89788 | 16135 ft | 360 kts | 167° |
| 2026-05-07 02:05 | 40.29080 | -73.88617 | 16750 ft | 364 kts | 167° |
| 2026-05-07 02:06 | 40.26696 | -73.87428 | 17369 ft | 368 kts | 167° |
| 2026-05-07 02:06 | 40.24289 | -73.86225 | 17976 ft | 373 kts | 167° |
| 2026-05-07 02:06 | 40.21848 | -73.85004 | 18518 ft | 377 kts | 168° |
| 2026-05-07 02:06 | 40.19386 | -73.83753 | 19004 ft | 383 kts | 168° |
| 2026-05-07 02:07 | 40.16895 | -73.82466 | 19495 ft | 388 kts | 168° |
| 2026-05-07 02:07 | 40.11835 | -73.79783 | 20550 ft | 397 kts | 168° |
| 2026-05-07 02:07 | 40.09267 | -73.78387 | 21076 ft | 401 kts | 168° |
| 2026-05-07 02:08 | 40.06680 | -73.76958 | 21572 ft | 406 kts | 168° |
| 2026-05-07 02:08 | 40.04075 | -73.75499 | 22083 ft | 410 kts | 167° |
| 2026-05-07 02:08 | 40.01442 | -73.74005 | 22582 ft | 415 kts | 167° |
| 2026-05-07 02:08 | 39.98786 | -73.72479 | 23078 ft | 419 kts | 167° |
| 2026-05-07 02:09 | 39.96105 | -73.70925 | 23523 ft | 423 kts | 167° |
| 2026-05-07 02:09 | 39.93401 | -73.69359 | 23934 ft | 427 kts | 167° |
| 2026-05-07 02:09 | 39.91581 | -73.68414 | 24209 ft | 419 kts | 175° |
| 2026-05-07 02:09 | 39.88787 | -73.67586 | 24610 ft | 404 kts | 187° |
| 2026-05-07 02:10 | 39.86058 | -73.67657 | 25021 ft | 383 kts | 202° |
| 2026-05-07 02:10 | 39.83573 | -73.68605 | 25454 ft | 364 kts | 216° |
| 2026-05-07 02:10 | 39.80878 | -73.70938 | 26017 ft | 344 kts | 233° |
| 2026-05-07 02:10 | 39.79364 | -73.73277 | 26455 ft | 334 kts | 244° |
| 2026-05-07 02:11 | 39.78313 | -73.75936 | 26887 ft | 330 kts | 251° |
| 2026-05-07 02:11 | 39.77680 | -73.77779 | 27186 ft | 331 kts | 251° |
| 2026-05-07 02:11 | 39.76735 | -73.80506 | 27612 ft | 332 kts | 250° |
| 2026-05-07 02:11 | 39.75778 | -73.83251 | 27848 ft | 333 kts | 250° |
| 2026-05-07 02:12 | 39.74819 | -73.85991 | 27898 ft | 333 kts | 250° |
| 2026-05-07 02:12 | 39.73873 | -73.88691 | 27900 ft | 333 kts | 250° |
| 2026-05-07 02:12 | 39.72912 | -73.91424 | 27900 ft | 333 kts | 250° |
| 2026-05-07 02:12 | 39.71949 | -73.94151 | 27900 ft | 333 kts | 250° |
| 2026-05-07 02:13 | 39.70985 | -73.96884 | 27899 ft | 332 kts | 250° |
| 2026-05-07 02:13 | 39.70023 | -73.99623 | 28010 ft | 334 kts | 250° |
| 2026-05-07 02:13 | 39.69060 | -74.02368 | 28440 ft | 335 kts | 250° |
| 2026-05-07 02:13 | 39.68092 | -74.05117 | 28897 ft | 335 kts | 250° |
| 2026-05-07 02:14 | 39.67125 | -74.07869 | 29331 ft | 335 kts | 250° |
| 2026-05-07 02:14 | 39.66154 | -74.10630 | 29752 ft | 337 kts | 250° |
| 2026-05-07 02:14 | 39.65180 | -74.13397 | 30126 ft | 338 kts | 250° |
| 2026-05-07 02:14 | 39.64199 | -74.16179 | 30460 ft | 340 kts | 250° |
| 2026-05-07 02:15 | 39.63213 | -74.18969 | 30779 ft | 341 kts | 250° |
| 2026-05-07 02:15 | 39.62219 | -74.21773 | 31086 ft | 343 kts | 250° |
| 2026-05-07 02:15 | 39.61219 | -74.24594 | 31384 ft | 345 kts | 250° |
| 2026-05-07 02:15 | 39.60218 | -74.27423 | 31678 ft | 347 kts | 250° |
| 2026-05-07 02:16 | 39.59206 | -74.30270 | 31857 ft | 347 kts | 250° |
| 2026-05-07 02:16 | 39.58210 | -74.33062 | 31892 ft | 334 kts | 250° |
| 2026-05-07 02:16 | 39.57251 | -74.35740 | 31902 ft | 321 kts | 250° |
| 2026-05-07 02:16 | 39.56328 | -74.38318 | 31899 ft | 311 kts | 250° |
| 2026-05-07 02:17 | 39.54529 | -74.43359 | 31895 ft | 307 kts | 250° |
| 2026-05-07 02:17 | 39.52743 | -74.48368 | 31896 ft | 306 kts | 250° |
| 2026-05-07 02:18 | 39.50956 | -74.53374 | 31897 ft | 306 kts | 250° |
| 2026-05-07 02:18 | 39.49164 | -74.58370 | 31896 ft | 306 kts | 250° |
| 2026-05-07 02:19 | 39.47372 | -74.63364 | 31895 ft | 306 kts | 250° |
| 2026-05-07 02:19 | 39.45581 | -74.68350 | 31892 ft | 305 kts | 250° |
| 2026-05-07 02:20 | 39.43785 | -74.73333 | 31856 ft | 306 kts | 250° |
| 2026-05-07 02:20 | 39.41985 | -74.78328 | 31860 ft | 307 kts | 250° |
| 2026-05-07 02:21 | 39.40180 | -74.83331 | 31861 ft | 307 kts | 250° |
| 2026-05-07 02:21 | 39.38367 | -74.88339 | 31863 ft | 308 kts | 250° |
| 2026-05-07 02:22 | 39.36552 | -74.93351 | 31864 ft | 308 kts | 250° |
| 2026-05-07 02:22 | 39.34737 | -74.98367 | 31866 ft | 308 kts | 250° |
| 2026-05-07 02:23 | 39.32912 | -75.03371 | 31877 ft | 308 kts | 250° |
| 2026-05-07 02:23 | 39.31084 | -75.08374 | 31919 ft | 308 kts | 250° |
| 2026-05-07 02:24 | 39.28638 | -75.12978 | 31851 ft | 321 kts | 234° |
| 2026-05-07 02:24 | 39.25483 | -75.17067 | 31859 ft | 322 kts | 234° |
| 2026-05-07 02:25 | 39.22342 | -75.21134 | 31860 ft | 323 kts | 234° |
| 2026-05-07 02:25 | 39.19147 | -75.25259 | 31864 ft | 323 kts | 234° |
| 2026-05-07 02:26 | 39.15995 | -75.29333 | 31871 ft | 323 kts | 234° |
| 2026-05-07 02:26 | 39.12821 | -75.33438 | 31873 ft | 323 kts | 234° |
| 2026-05-07 02:27 | 39.09647 | -75.37536 | 31843 ft | 324 kts | 234° |
| 2026-05-07 02:27 | 39.06439 | -75.41676 | 31797 ft | 329 kts | 234° |
| 2026-05-07 02:28 | 39.04824 | -75.43758 | 31368 ft | 328 kts | 234° |
| 2026-05-07 02:28 | 39.03212 | -75.45834 | 30881 ft | 328 kts | 234° |
| 2026-05-07 02:28 | 39.01592 | -75.47914 | 30404 ft | 329 kts | 234° |
| 2026-05-07 02:28 | 38.99968 | -75.49995 | 29994 ft | 330 kts | 233° |
| 2026-05-07 02:29 | 38.98343 | -75.52078 | 29872 ft | 331 kts | 233° |
| 2026-05-07 02:29 | 38.96713 | -75.54168 | 29892 ft | 332 kts | 233° |
| 2026-05-07 02:29 | 38.93439 | -75.58358 | 29892 ft | 332 kts | 233° |
| 2026-05-07 02:30 | 38.90201 | -75.62580 | 29844 ft | 329 kts | 236° |
| 2026-05-07 02:30 | 38.87625 | -75.67379 | 29892 ft | 325 kts | 244° |
| 2026-05-07 02:31 | 38.85368 | -75.72407 | 29895 ft | 325 kts | 244° |
| 2026-05-07 02:31 | 38.83101 | -75.77432 | 29893 ft | 325 kts | 244° |
| 2026-05-07 02:32 | 38.80844 | -75.82438 | 30085 ft | 324 kts | 245° |
| 2026-05-07 02:32 | 38.79718 | -75.84934 | 30568 ft | 322 kts | 245° |
| 2026-05-07 02:32 | 38.78600 | -75.87406 | 31074 ft | 319 kts | 245° |
| 2026-05-07 02:33 | 38.77491 | -75.89854 | 31580 ft | 317 kts | 246° |
| 2026-05-07 02:33 | 38.76382 | -75.92297 | 31846 ft | 317 kts | 246° |
| 2026-05-07 02:33 | 38.74146 | -75.97140 | 31907 ft | 318 kts | 242° |
| 2026-05-07 02:34 | 38.72671 | -75.99299 | 31859 ft | 329 kts | 231° |
| 2026-05-07 02:34 | 38.70849 | -76.01138 | 31904 ft | 336 kts | 227° |
| 2026-05-07 02:34 | 38.67125 | -76.04758 | 31904 ft | 336 kts | 227° |
| 2026-05-07 02:35 | 38.63400 | -76.08370 | 31906 ft | 336 kts | 227° |
| 2026-05-07 02:35 | 38.59673 | -76.11981 | 31903 ft | 336 kts | 227° |
| 2026-05-07 02:36 | 38.55955 | -76.15585 | 31933 ft | 335 kts | 228° |
| 2026-05-07 02:36 | 38.52242 | -76.19182 | 31858 ft | 336 kts | 227° |
| 2026-05-07 02:37 | 38.48427 | -76.22893 | 31901 ft | 353 kts | 227° |
| 2026-05-07 02:37 | 38.44476 | -76.26709 | 31899 ft | 358 kts | 227° |
| 2026-05-07 02:38 | 38.40499 | -76.30534 | 31902 ft | 358 kts | 227° |
| 2026-05-07 02:38 | 38.36522 | -76.34360 | 31906 ft | 358 kts | 227° |
| 2026-05-07 02:39 | 38.32629 | -76.38091 | 31906 ft | 348 kts | 227° |
| 2026-05-07 02:39 | 38.28842 | -76.41887 | 31869 ft | 341 kts | 233° |
| 2026-05-07 02:40 | 38.25592 | -76.46257 | 31878 ft | 340 kts | 234° |
| 2026-05-07 02:40 | 38.22341 | -76.50632 | 31902 ft | 341 kts | 235° |
| 2026-05-07 02:41 | 38.19084 | -76.55003 | 31912 ft | 340 kts | 235° |
| 2026-05-07 02:41 | 38.15830 | -76.59362 | 31910 ft | 339 kts | 235° |
| 2026-05-07 02:42 | 38.12583 | -76.63712 | 31886 ft | 339 kts | 235° |
| 2026-05-07 02:42 | 38.09331 | -76.68056 | 31862 ft | 340 kts | 234° |
| 2026-05-07 02:43 | 38.06063 | -76.72415 | 31865 ft | 341 kts | 234° |
| 2026-05-07 02:43 | 38.02789 | -76.76781 | 31866 ft | 342 kts | 234° |
| 2026-05-07 02:44 | 37.99506 | -76.81157 | 31872 ft | 342 kts | 234° |
| 2026-05-07 02:44 | 37.95725 | -76.84984 | 31874 ft | 364 kts | 217° |
| 2026-05-07 02:45 | 37.90882 | -76.87276 | 31864 ft | 373 kts | 212° |
| 2026-05-07 02:45 | 37.85984 | -76.89484 | 31879 ft | 374 kts | 212° |
| 2026-05-07 02:46 | 37.81078 | -76.91701 | 31883 ft | 374 kts | 212° |
| 2026-05-07 02:46 | 37.76171 | -76.93927 | 31885 ft | 374 kts | 212° |
| 2026-05-07 02:47 | 37.71267 | -76.96147 | 31889 ft | 374 kts | 212° |
| 2026-05-07 02:47 | 37.66360 | -76.98362 | 31888 ft | 374 kts | 212° |
| 2026-05-07 02:48 | 37.61459 | -77.00577 | 31890 ft | 374 kts | 212° |
| 2026-05-07 02:48 | 37.56552 | -77.02783 | 31900 ft | 374 kts | 212° |
| 2026-05-07 02:49 | 37.51644 | -77.04998 | 31904 ft | 375 kts | 212° |
| 2026-05-07 02:49 | 37.46738 | -77.07214 | 31872 ft | 375 kts | 212° |
| 2026-05-07 02:50 | 37.41818 | -77.09428 | 31883 ft | 376 kts | 211° |
| 2026-05-07 02:50 | 37.36882 | -77.11635 | 31891 ft | 377 kts | 211° |
| 2026-05-07 02:51 | 37.31998 | -77.13968 | 31895 ft | 371 kts | 216° |
| 2026-05-07 02:51 | 37.27311 | -77.16687 | 31900 ft | 371 kts | 216° |
| 2026-05-07 02:52 | 37.22613 | -77.19412 | 31909 ft | 374 kts | 216° |
| 2026-05-07 02:52 | 37.17908 | -77.22143 | 31915 ft | 375 kts | 216° |
| 2026-05-07 02:53 | 37.13355 | -77.25171 | 31916 ft | 368 kts | 221° |
| 2026-05-07 02:53 | 37.11152 | -77.26791 | 31607 ft | 367 kts | 221° |
| 2026-05-07 02:53 | 37.08920 | -77.28429 | 31232 ft | 367 kts | 220° |
| 2026-05-07 02:54 | 37.06741 | -77.30029 | 30848 ft | 368 kts | 220° |
| 2026-05-07 02:54 | 37.04532 | -77.31654 | 30455 ft | 368 kts | 219° |
| 2026-05-07 02:54 | 37.02334 | -77.33275 | 29987 ft | 367 kts | 219° |
| 2026-05-07 02:54 | 37.00141 | -77.34907 | 29527 ft | 366 kts | 219° |
| 2026-05-07 02:55 | 36.97955 | -77.36542 | 29108 ft | 365 kts | 219° |
| 2026-05-07 02:55 | 36.95780 | -77.38168 | 28687 ft | 364 kts | 219° |
| 2026-05-07 02:55 | 36.94315 | -77.39262 | 28400 ft | 363 kts | 219° |
| 2026-05-07 02:55 | 36.91452 | -77.41397 | 27858 ft | 361 kts | 219° |
| 2026-05-07 02:56 | 36.90001 | -77.42478 | 27584 ft | 359 kts | 219° |
| 2026-05-07 02:56 | 36.87162 | -77.44588 | 27029 ft | 357 kts | 219° |
| 2026-05-07 02:56 | 36.85720 | -77.45659 | 26751 ft | 357 kts | 219° |
| 2026-05-07 02:56 | 36.83593 | -77.47235 | 26335 ft | 355 kts | 219° |
| 2026-05-07 02:57 | 36.81469 | -77.48806 | 25907 ft | 354 kts | 219° |
| 2026-05-07 02:57 | 36.79352 | -77.50374 | 25470 ft | 354 kts | 219° |
| 2026-05-07 02:57 | 36.77234 | -77.51939 | 25023 ft | 354 kts | 218° |
| 2026-05-07 02:57 | 36.75119 | -77.53496 | 24576 ft | 353 kts | 218° |
| 2026-05-07 02:58 | 36.73011 | -77.55046 | 24116 ft | 352 kts | 218° |
| 2026-05-07 02:58 | 36.70904 | -77.56597 | 23649 ft | 351 kts | 218° |
| 2026-05-07 02:58 | 36.68801 | -77.58142 | 23125 ft | 350 kts | 218° |
| 2026-05-07 02:58 | 36.66711 | -77.59675 | 22665 ft | 347 kts | 218° |
| 2026-05-07 02:59 | 36.64637 | -77.61196 | 22177 ft | 344 kts | 218° |
| 2026-05-07 02:59 | 36.62582 | -77.62704 | 21702 ft | 341 kts | 218° |
| 2026-05-07 02:59 | 36.60547 | -77.64201 | 21238 ft | 338 kts | 218° |
| 2026-05-07 02:59 | 36.58535 | -77.65681 | 20741 ft | 335 kts | 219° |
| 2026-05-07 03:00 | 36.56533 | -77.67147 | 20323 ft | 332 kts | 219° |
| 2026-05-07 03:00 | 36.54549 | -77.68599 | 19857 ft | 329 kts | 219° |
| 2026-05-07 03:00 | 36.52620 | -77.70082 | 19409 ft | 321 kts | 225° |
| 2026-05-07 03:00 | 36.51013 | -77.71876 | 18983 ft | 312 kts | 232° |
| 2026-05-07 03:01 | 36.49458 | -77.73734 | 18554 ft | 309 kts | 232° |
| 2026-05-07 03:01 | 36.47906 | -77.75576 | 18109 ft | 307 kts | 232° |
| 2026-05-07 03:01 | 36.46376 | -77.77383 | 17693 ft | 302 kts | 231° |
| 2026-05-07 03:01 | 36.44862 | -77.79173 | 17261 ft | 299 kts | 231° |
| 2026-05-07 03:02 | 36.43365 | -77.80945 | 16847 ft | 295 kts | 231° |
| 2026-05-07 03:02 | 36.41887 | -77.82696 | 16434 ft | 293 kts | 230° |
| 2026-05-07 03:02 | 36.40418 | -77.84434 | 16033 ft | 290 kts | 230° |
| 2026-05-07 03:02 | 36.38963 | -77.86150 | 15637 ft | 288 kts | 229° |
| 2026-05-07 03:03 | 36.37519 | -77.87854 | 15238 ft | 286 kts | 229° |
| 2026-05-07 03:03 | 36.36084 | -77.89552 | 14841 ft | 284 kts | 229° |
| 2026-05-07 03:03 | 36.34657 | -77.91236 | 14457 ft | 282 kts | 228° |
| 2026-05-07 03:03 | 36.33237 | -77.92912 | 14073 ft | 282 kts | 228° |
| 2026-05-07 03:04 | 36.31819 | -77.94583 | 13683 ft | 281 kts | 227° |
| 2026-05-07 03:04 | 36.30404 | -77.96249 | 13270 ft | 280 kts | 227° |
| 2026-05-07 03:04 | 36.28995 | -77.97902 | 12883 ft | 278 kts | 227° |
| 2026-05-07 03:04 | 36.27597 | -77.99541 | 12504 ft | 276 kts | 227° |
| 2026-05-07 03:05 | 36.26212 | -78.01167 | 12128 ft | 274 kts | 227° |
| 2026-05-07 03:05 | 36.24833 | -78.02788 | 11758 ft | 272 kts | 227° |
| 2026-05-07 03:05 | 36.23499 | -78.04441 | 11387 ft | 269 kts | 234° |
| 2026-05-07 03:05 | 36.22531 | -78.06384 | 11029 ft | 264 kts | 247° |
| 2026-05-07 03:06 | 36.21785 | -78.08449 | 10676 ft | 262 kts | 247° |
| 2026-05-07 03:06 | 36.21030 | -78.10505 | 10321 ft | 262 kts | 247° |
| 2026-05-07 03:06 | 36.20294 | -78.12557 | 9964 ft | 260 kts | 248° |
| 2026-05-07 03:06 | 36.19598 | -78.14613 | 9599 ft | 259 kts | 249° |
| 2026-05-07 03:07 | 36.18916 | -78.16666 | 9241 ft | 256 kts | 249° |
| 2026-05-07 03:07 | 36.18242 | -78.18699 | 8899 ft | 254 kts | 249° |
| 2026-05-07 03:07 | 36.17568 | -78.20717 | 8556 ft | 253 kts | 249° |
| 2026-05-07 03:07 | 36.16900 | -78.22717 | 8225 ft | 251 kts | 249° |
| 2026-05-07 03:08 | 36.16237 | -78.24701 | 7888 ft | 249 kts | 249° |
| 2026-05-07 03:08 | 36.15578 | -78.26676 | 7560 ft | 248 kts | 249° |
| 2026-05-07 03:08 | 36.14974 | -78.28660 | 7234 ft | 246 kts | 256° |
| 2026-05-07 03:08 | 36.14608 | -78.30723 | 7018 ft | 246 kts | 258° |
| 2026-05-07 03:09 | 36.14244 | -78.32789 | 7010 ft | 246 kts | 258° |
| 2026-05-07 03:09 | 36.13879 | -78.34825 | 7011 ft | 236 kts | 258° |
| 2026-05-07 03:09 | 36.13529 | -78.36747 | 7007 ft | 222 kts | 258° |
| 2026-05-07 03:09 | 36.13201 | -78.38558 | 7013 ft | 209 kts | 258° |
| 2026-05-07 03:10 | 36.12896 | -78.40252 | 7003 ft | 197 kts | 258° |
| 2026-05-07 03:10 | 36.12602 | -78.41887 | 7014 ft | 194 kts | 257° |
| 2026-05-07 03:10 | 36.12080 | -78.43416 | 6977 ft | 197 kts | 241° |
| 2026-05-07 03:10 | 36.11311 | -78.44868 | 6479 ft | 207 kts | 239° |
| 2026-05-07 03:11 | 36.10501 | -78.46366 | 5972 ft | 209 kts | 239° |
| 2026-05-07 03:11 | 36.09718 | -78.47805 | 5735 ft | 201 kts | 239° |
| 2026-05-07 03:11 | 36.08934 | -78.49245 | 5577 ft | 198 kts | 238° |
| 2026-05-07 03:11 | 36.08162 | -78.50662 | 5227 ft | 199 kts | 238° |
| 2026-05-07 03:12 | 36.07390 | -78.52085 | 4845 ft | 199 kts | 238° |
| 2026-05-07 03:12 | 36.06619 | -78.53506 | 4443 ft | 200 kts | 238° |
| 2026-05-07 03:12 | 36.05847 | -78.54935 | 4063 ft | 200 kts | 237° |
| 2026-05-07 03:12 | 36.05096 | -78.56324 | 3998 ft | 192 kts | 236° |
| 2026-05-07 03:13 | 36.04266 | -78.57581 | 3997 ft | 187 kts | 231° |
| 2026-05-07 03:13 | 36.03406 | -78.58711 | 3999 ft | 179 kts | 229° |
| 2026-05-07 03:13 | 36.02526 | -78.59824 | 3999 ft | 183 kts | 228° |
| 2026-05-07 03:13 | 36.01628 | -78.60946 | 3989 ft | 185 kts | 228° |
| 2026-05-07 03:14 | 36.00722 | -78.62072 | 3847 ft | 183 kts | 228° |
| 2026-05-07 03:14 | 35.99827 | -78.63183 | 3639 ft | 182 kts | 228° |
| 2026-05-07 03:14 | 35.98032 | -78.65412 | 3181 ft | 183 kts | 226° |
| 2026-05-07 03:15 | 35.97134 | -78.66526 | 2936 ft | 183 kts | 226° |
| 2026-05-07 03:15 | 35.96239 | -78.67635 | 2686 ft | 181 kts | 226° |
| 2026-05-07 03:15 | 35.95370 | -78.68712 | 2464 ft | 172 kts | 226° |
| 2026-05-07 03:15 | 35.94544 | -78.69735 | 2245 ft | 167 kts | 225° |
| 2026-05-07 03:16 | 35.93738 | -78.70734 | 2039 ft | 163 kts | 225° |
| 2026-05-07 03:16 | 35.92971 | -78.71684 | 1821 ft | 150 kts | 225° |
| 2026-05-07 03:16 | 35.92262 | -78.72562 | 1633 ft | 140 kts | 224° |
| 2026-05-07 03:16 | 35.91593 | -78.73390 | 1453 ft | 136 kts | 224° |
| 2026-05-07 03:17 | 35.90951 | -78.74184 | 1279 ft | 124 kts | 224° |
| 2026-05-07 03:17 | 35.90355 | -78.74922 | 1122 ft | 122 kts | 223° |
| 2026-05-07 03:17 | 35.89752 | -78.75667 | 1003 ft | 124 kts | 224° |
| 2026-05-07 03:17 | 35.89144 | -78.76424 | 806 ft | 126 kts | 226° |
| 2026-05-07 03:18 | 35.88531 | -78.77194 | 626 ft | 126 kts | 225° |
| 2026-05-07 03:18 | 35.87915 | -78.77947 | 479 ft | 124 kts | 224° |
| 2026-05-07 03:18 | 35.87368 | -78.78631 | 428 ft | 92 kts | 224° |
| 2026-05-07 03:18 | 35.87154 | -78.78914 | 427 ft | 11 kts | 296° |
| 2026-05-07 03:19 | 35.87172 | -78.78940 | 431 ft | 0 kts | 313° |
| 2026-05-07 03:19 | 35.87180 | -78.78950 | 432 ft | 3 kts | 313° |
| 2026-05-07 03:19 | 35.87214 | -78.78992 | 434 ft | 14 kts | 318° |
| 2026-05-07 03:19 | 35.87310 | -78.78944 | 430 ft | 18 kts | 45° |
| 2026-05-07 03:20 | 35.87383 | -78.78925 | 434 ft | 11 kts | 310° |
| 2026-05-07 03:20 | 35.87401 | -78.78955 | 425 ft | 0 kts | 302° |